sensor_id;sensor_type;location;lat;lon;timestamp;P1;durP1;ratioP1;P2;durP2;ratioP2
9807;SDS011;4943;52.550;13.462;2023-03-21T00:00:37;7.67;;;6.23;;
9807;SDS011;4943;52.550;13.462;2023-03-21T00:03:05;7.83;;;7.00;;
9807;SDS011;4943;52.550;13.462;2023-03-21T00:05:38;11.60;;;7.93;;
9807;SDS011;4943;52.550;13.462;2023-03-21T00:08:07;6.93;;;6.23;;
9807;SDS011;4943;52.550;13.462;2023-03-21T00:10:35;9.43;;;8.23;;
9807;SDS011;4943;52.550;13.462;2023-03-21T00:13:10;7.87;;;5.77;;
9807;SDS011;4943;52.550;13.462;2023-03-21T00:15:39;5.87;;;4.57;;
9807;SDS011;4943;52.550;13.462;2023-03-21T00:18:35;9.93;;;8.93;;
9807;SDS011;4943;52.550;13.462;2023-03-21T00:21:07;9.30;;;8.50;;
9807;SDS011;4943;52.550;13.462;2023-03-21T00:23:58;12.37;;;10.67;;
9807;SDS011;4943;52.550;13.462;2023-03-21T00:26:27;11.70;;;10.63;;
9807;SDS011;4943;52.550;13.462;2023-03-21T00:28:56;11.20;;;10.13;;
9807;SDS011;4943;52.550;13.462;2023-03-21T00:31:24;16.70;;;14.90;;
9807;SDS011;4943;52.550;13.462;2023-03-21T00:33:52;12.97;;;11.73;;
9807;SDS011;4943;52.550;13.462;2023-03-21T00:36:20;13.70;;;12.37;;
9807;SDS011;4943;52.550;13.462;2023-03-21T00:38:51;16.83;;;13.87;;
9807;SDS011;4943;52.550;13.462;2023-03-21T00:41:19;4.20;;;3.67;;
9807;SDS011;4943;52.550;13.462;2023-03-21T00:44:07;6.57;;;3.20;;
9807;SDS011;4943;52.550;13.462;2023-03-21T00:46:36;4.00;;;3.30;;
9807;SDS011;4943;52.550;13.462;2023-03-21T00:49:19;9.17;;;3.60;;
9807;SDS011;4943;52.550;13.462;2023-03-21T00:51:47;5.67;;;3.63;;
9807;SDS011;4943;52.550;13.462;2023-03-21T00:54:17;7.13;;;3.53;;
9807;SDS011;4943;52.550;13.462;2023-03-21T00:56:45;4.33;;;3.47;;
9807;SDS011;4943;52.550;13.462;2023-03-21T00:59:14;4.23;;;3.67;;
9807;SDS011;4943;52.550;13.462;2023-03-21T01:01:42;6.87;;;3.83;;
9807;SDS011;4943;52.550;13.462;2023-03-21T01:04:12;4.67;;;3.33;;
9807;SDS011;4943;52.550;13.462;2023-03-21T01:06:42;5.10;;;3.93;;
9807;SDS011;4943;52.550;13.462;2023-03-21T01:09:11;6.53;;;3.53;;
9807;SDS011;4943;52.550;13.462;2023-03-21T01:11:40;5.97;;;3.70;;
9807;SDS011;4943;52.550;13.462;2023-03-21T01:14:09;4.80;;;3.50;;
9807;SDS011;4943;52.550;13.462;2023-03-21T01:16:50;5.90;;;3.83;;
9807;SDS011;4943;52.550;13.462;2023-03-21T01:19:20;6.83;;;4.23;;
9807;SDS011;4943;52.550;13.462;2023-03-21T01:22:06;5.30;;;3.87;;
9807;SDS011;4943;52.550;13.462;2023-03-21T01:24:34;6.67;;;4.17;;
9807;SDS011;4943;52.550;13.462;2023-03-21T01:27:11;6.77;;;4.73;;
9807;SDS011;4943;52.550;13.462;2023-03-21T01:29:39;6.60;;;4.30;;
9807;SDS011;4943;52.550;13.462;2023-03-21T01:32:10;6.00;;;4.20;;
9807;SDS011;4943;52.550;13.462;2023-03-21T01:34:38;7.33;;;5.03;;
9807;SDS011;4943;52.550;13.462;2023-03-21T01:37:06;9.83;;;6.07;;
9807;SDS011;4943;52.550;13.462;2023-03-21T01:39:34;7.13;;;4.83;;
9807;SDS011;4943;52.550;13.462;2023-03-21T01:42:02;7.70;;;5.20;;
9807;SDS011;4943;52.550;13.462;2023-03-21T01:44:30;9.70;;;5.70;;
9807;SDS011;4943;52.550;13.462;2023-03-21T01:46:58;10.60;;;6.63;;
9807;SDS011;4943;52.550;13.462;2023-03-21T01:49:38;7.97;;;6.07;;
9807;SDS011;4943;52.550;13.462;2023-03-21T01:52:12;12.40;;;6.30;;
9807;SDS011;4943;52.550;13.462;2023-03-21T01:55:00;11.10;;;7.03;;
9807;SDS011;4943;52.550;13.462;2023-03-21T01:57:32;8.43;;;5.70;;
9807;SDS011;4943;52.550;13.462;2023-03-21T02:00:20;9.50;;;6.20;;
9807;SDS011;4943;52.550;13.462;2023-03-21T02:02:50;11.10;;;5.97;;
9807;SDS011;4943;52.550;13.462;2023-03-21T02:05:28;8.07;;;5.70;;
9807;SDS011;4943;52.550;13.462;2023-03-21T02:08:03;11.07;;;6.37;;
9807;SDS011;4943;52.550;13.462;2023-03-21T02:10:31;10.23;;;5.87;;
9807;SDS011;4943;52.550;13.462;2023-03-21T02:13:01;10.37;;;6.00;;
9807;SDS011;4943;52.550;13.462;2023-03-21T02:15:35;9.70;;;6.77;;
9807;SDS011;4943;52.550;13.462;2023-03-21T02:18:06;12.73;;;7.30;;
9807;SDS011;4943;52.550;13.462;2023-03-21T02:23:54;13.67;;;7.87;;
9807;SDS011;4943;52.550;13.462;2023-03-21T02:29:38;12.23;;;8.70;;
9807;SDS011;4943;52.550;13.462;2023-03-21T02:32:56;14.50;;;8.60;;
9807;SDS011;4943;52.550;13.462;2023-03-21T02:35:39;13.03;;;7.90;;
9807;SDS011;4943;52.550;13.462;2023-03-21T02:38:24;11.93;;;8.10;;
9807;SDS011;4943;52.550;13.462;2023-03-21T02:40:59;16.63;;;8.82;;
9807;SDS011;4943;52.550;13.462;2023-03-21T02:43:43;14.90;;;8.60;;
9807;SDS011;4943;52.550;13.462;2023-03-21T02:46:17;19.23;;;9.13;;
9807;SDS011;4943;52.550;13.462;2023-03-21T02:48:59;14.70;;;8.77;;
9807;SDS011;4943;52.550;13.462;2023-03-21T02:51:34;13.13;;;9.00;;
9807;SDS011;4943;52.550;13.462;2023-03-21T02:54:08;15.83;;;9.30;;
9807;SDS011;4943;52.550;13.462;2023-03-21T02:56:59;16.67;;;10.40;;
9807;SDS011;4943;52.550;13.462;2023-03-21T02:59:30;13.67;;;9.83;;
9807;SDS011;4943;52.550;13.462;2023-03-21T03:02:04;15.67;;;9.87;;
9807;SDS011;4943;52.550;13.462;2023-03-21T03:04:33;14.70;;;9.03;;
9807;SDS011;4943;52.550;13.462;2023-03-21T03:07:10;13.17;;;9.97;;
9807;SDS011;4943;52.550;13.462;2023-03-21T03:09:50;14.73;;;9.50;;
9807;SDS011;4943;52.550;13.462;2023-03-21T03:12:30;13.87;;;9.93;;
9807;SDS011;4943;52.550;13.462;2023-03-21T03:15:11;17.47;;;10.50;;
9807;SDS011;4943;52.550;13.462;2023-03-21T03:17:49;15.93;;;10.10;;
9807;SDS011;4943;52.550;13.462;2023-03-21T03:20:24;14.90;;;10.47;;
9807;SDS011;4943;52.550;13.462;2023-03-21T03:23:04;15.00;;;10.20;;
9807;SDS011;4943;52.550;13.462;2023-03-21T03:25:41;17.30;;;10.13;;
9807;SDS011;4943;52.550;13.462;2023-03-21T03:28:14;12.97;;;8.80;;
9807;SDS011;4943;52.550;13.462;2023-03-21T03:30:46;16.03;;;9.73;;
9807;SDS011;4943;52.550;13.462;2023-03-21T03:33:33;17.03;;;10.00;;
9807;SDS011;4943;52.550;13.462;2023-03-21T03:36:07;19.60;;;9.63;;
9807;SDS011;4943;52.550;13.462;2023-03-21T03:38:55;17.53;;;9.30;;
9807;SDS011;4943;52.550;13.462;2023-03-21T03:41:26;16.70;;;10.10;;
9807;SDS011;4943;52.550;13.462;2023-03-21T03:44:01;15.60;;;8.83;;
9807;SDS011;4943;52.550;13.462;2023-03-21T03:46:31;14.90;;;9.30;;
9807;SDS011;4943;52.550;13.462;2023-03-21T03:49:03;16.87;;;10.00;;
9807;SDS011;4943;52.550;13.462;2023-03-21T03:51:38;15.30;;;9.23;;
9807;SDS011;4943;52.550;13.462;2023-03-21T03:54:10;16.73;;;9.00;;
9807;SDS011;4943;52.550;13.462;2023-03-21T03:56:42;17.93;;;10.33;;
9807;SDS011;4943;52.550;13.462;2023-03-21T03:59:10;13.67;;;9.27;;
9807;SDS011;4943;52.550;13.462;2023-03-21T04:01:39;14.63;;;8.57;;
9807;SDS011;4943;52.550;13.462;2023-03-21T04:04:07;19.10;;;9.83;;
9807;SDS011;4943;52.550;13.462;2023-03-21T04:06:38;14.50;;;9.77;;
9807;SDS011;4943;52.550;13.462;2023-03-21T04:09:06;16.17;;;10.43;;
9807;SDS011;4943;52.550;13.462;2023-03-21T04:11:48;16.23;;;10.10;;
9807;SDS011;4943;52.550;13.462;2023-03-21T04:14:16;18.40;;;9.93;;
9807;SDS011;4943;52.550;13.462;2023-03-21T04:16:44;18.50;;;10.30;;
9807;SDS011;4943;52.550;13.462;2023-03-21T04:19:12;20.03;;;10.97;;
9807;SDS011;4943;52.550;13.462;2023-03-21T04:21:41;22.27;;;10.67;;
9807;SDS011;4943;52.550;13.462;2023-03-21T04:24:09;18.93;;;11.03;;
9807;SDS011;4943;52.550;13.462;2023-03-21T04:26:39;17.03;;;10.10;;
9807;SDS011;4943;52.550;13.462;2023-03-21T04:29:08;18.37;;;11.17;;
9807;SDS011;4943;52.550;13.462;2023-03-21T04:31:36;17.40;;;11.00;;
9807;SDS011;4943;52.550;13.462;2023-03-21T04:34:06;22.90;;;10.60;;
9807;SDS011;4943;52.550;13.462;2023-03-21T04:36:37;16.00;;;9.70;;
9807;SDS011;4943;52.550;13.462;2023-03-21T04:39:08;18.10;;;10.50;;
9807;SDS011;4943;52.550;13.462;2023-03-21T04:41:38;18.73;;;10.10;;
9807;SDS011;4943;52.550;13.462;2023-03-21T04:44:06;14.63;;;9.40;;
9807;SDS011;4943;52.550;13.462;2023-03-21T04:46:37;16.97;;;10.13;;
9807;SDS011;4943;52.550;13.462;2023-03-21T04:49:06;17.73;;;10.77;;
9807;SDS011;4943;52.550;13.462;2023-03-21T04:51:34;17.40;;;9.63;;
9807;SDS011;4943;52.550;13.462;2023-03-21T04:54:03;15.13;;;9.73;;
9807;SDS011;4943;52.550;13.462;2023-03-21T04:56:31;15.70;;;9.33;;
9807;SDS011;4943;52.550;13.462;2023-03-21T04:59:01;18.90;;;9.33;;
9807;SDS011;4943;52.550;13.462;2023-03-21T05:01:34;17.33;;;10.27;;
9807;SDS011;4943;52.550;13.462;2023-03-21T05:04:02;14.90;;;9.23;;
9807;SDS011;4943;52.550;13.462;2023-03-21T05:06:31;13.73;;;9.43;;
9807;SDS011;4943;52.550;13.462;2023-03-21T05:09:00;17.57;;;9.47;;
9807;SDS011;4943;52.550;13.462;2023-03-21T05:11:31;17.00;;;10.00;;
9807;SDS011;4943;52.550;13.462;2023-03-21T05:14:02;15.77;;;9.33;;
9807;SDS011;4943;52.550;13.462;2023-03-21T05:16:31;16.00;;;8.77;;
9807;SDS011;4943;52.550;13.462;2023-03-21T05:19:01;16.27;;;9.57;;
9807;SDS011;4943;52.550;13.462;2023-03-21T05:21:30;15.17;;;9.60;;
9807;SDS011;4943;52.550;13.462;2023-03-21T05:24:08;15.43;;;9.73;;
9807;SDS011;4943;52.550;13.462;2023-03-21T05:26:40;17.23;;;9.90;;
9807;SDS011;4943;52.550;13.462;2023-03-21T05:29:09;19.23;;;9.00;;
9807;SDS011;4943;52.550;13.462;2023-03-21T05:31:38;17.73;;;9.67;;
9807;SDS011;4943;52.550;13.462;2023-03-21T05:34:07;15.13;;;9.10;;
9807;SDS011;4943;52.550;13.462;2023-03-21T05:36:35;15.37;;;9.57;;
9807;SDS011;4943;52.550;13.462;2023-03-21T05:39:04;16.90;;;9.43;;
9807;SDS011;4943;52.550;13.462;2023-03-21T05:41:32;17.10;;;9.93;;
9807;SDS011;4943;52.550;13.462;2023-03-21T05:44:00;16.43;;;8.57;;
9807;SDS011;4943;52.550;13.462;2023-03-21T05:46:28;15.33;;;8.63;;
9807;SDS011;4943;52.550;13.462;2023-03-21T05:48:56;15.03;;;9.13;;
9807;SDS011;4943;52.550;13.462;2023-03-21T05:51:25;15.83;;;10.17;;
9807;SDS011;4943;52.550;13.462;2023-03-21T05:53:53;17.13;;;8.97;;
9807;SDS011;4943;52.550;13.462;2023-03-21T05:56:21;20.33;;;9.70;;
9807;SDS011;4943;52.550;13.462;2023-03-21T05:58:49;16.30;;;9.37;;
9807;SDS011;4943;52.550;13.462;2023-03-21T06:01:17;17.77;;;9.13;;
9807;SDS011;4943;52.550;13.462;2023-03-21T06:03:45;13.37;;;8.87;;
9807;SDS011;4943;52.550;13.462;2023-03-21T06:06:14;19.13;;;10.30;;
9807;SDS011;4943;52.550;13.462;2023-03-21T06:08:43;16.33;;;9.33;;
9807;SDS011;4943;52.550;13.462;2023-03-21T06:11:13;15.43;;;9.47;;
9807;SDS011;4943;52.550;13.462;2023-03-21T06:13:48;22.27;;;9.80;;
9807;SDS011;4943;52.550;13.462;2023-03-21T06:16:17;15.20;;;8.77;;
9807;SDS011;4943;52.550;13.462;2023-03-21T06:18:45;18.70;;;10.10;;
9807;SDS011;4943;52.550;13.462;2023-03-21T06:21:13;17.80;;;9.70;;
9807;SDS011;4943;52.550;13.462;2023-03-21T06:23:41;18.67;;;10.23;;
9807;SDS011;4943;52.550;13.462;2023-03-21T06:26:11;15.80;;;9.13;;
9807;SDS011;4943;52.550;13.462;2023-03-21T06:28:39;18.93;;;9.93;;
9807;SDS011;4943;52.550;13.462;2023-03-21T06:31:07;18.13;;;8.93;;
9807;SDS011;4943;52.550;13.462;2023-03-21T06:33:35;17.70;;;8.40;;
9807;SDS011;4943;52.550;13.462;2023-03-21T06:36:03;16.20;;;9.07;;
9807;SDS011;4943;52.550;13.462;2023-03-21T06:38:31;19.40;;;10.30;;
9807;SDS011;4943;52.550;13.462;2023-03-21T06:41:04;15.37;;;9.70;;
9807;SDS011;4943;52.550;13.462;2023-03-21T06:43:33;16.73;;;8.80;;
9807;SDS011;4943;52.550;13.462;2023-03-21T06:46:01;18.33;;;9.00;;
9807;SDS011;4943;52.550;13.462;2023-03-21T06:48:30;15.00;;;8.23;;
9807;SDS011;4943;52.550;13.462;2023-03-21T06:50:59;17.97;;;8.70;;
9807;SDS011;4943;52.550;13.462;2023-03-21T06:53:27;16.27;;;8.87;;
9807;SDS011;4943;52.550;13.462;2023-03-21T06:55:55;18.37;;;9.57;;
9807;SDS011;4943;52.550;13.462;2023-03-21T06:58:25;16.90;;;9.90;;
9807;SDS011;4943;52.550;13.462;2023-03-21T07:00:53;19.77;;;9.60;;
9807;SDS011;4943;52.550;13.462;2023-03-21T07:03:21;17.33;;;9.40;;
9807;SDS011;4943;52.550;13.462;2023-03-21T07:05:49;21.27;;;10.10;;
9807;SDS011;4943;52.550;13.462;2023-03-21T07:08:17;18.63;;;9.80;;
9807;SDS011;4943;52.550;13.462;2023-03-21T07:10:45;17.90;;;10.10;;
9807;SDS011;4943;52.550;13.462;2023-03-21T07:13:13;15.67;;;9.50;;
9807;SDS011;4943;52.550;13.462;2023-03-21T07:15:43;18.42;;;9.40;;
9807;SDS011;4943;52.550;13.462;2023-03-21T07:18:11;17.23;;;9.60;;
9807;SDS011;4943;52.550;13.462;2023-03-21T07:20:39;17.57;;;10.13;;
9807;SDS011;4943;52.550;13.462;2023-03-21T07:23:07;18.77;;;10.80;;
9807;SDS011;4943;52.550;13.462;2023-03-21T07:25:35;16.87;;;11.77;;
9807;SDS011;4943;52.550;13.462;2023-03-21T07:28:05;17.33;;;10.40;;
9807;SDS011;4943;52.550;13.462;2023-03-21T07:30:34;15.60;;;9.60;;
9807;SDS011;4943;52.550;13.462;2023-03-21T07:33:04;16.70;;;10.00;;
9807;SDS011;4943;52.550;13.462;2023-03-21T07:35:33;16.13;;;9.53;;
9807;SDS011;4943;52.550;13.462;2023-03-21T07:38:02;20.83;;;10.63;;
9807;SDS011;4943;52.550;13.462;2023-03-21T07:40:31;21.10;;;11.00;;
9807;SDS011;4943;52.550;13.462;2023-03-21T07:42:59;15.40;;;9.97;;
9807;SDS011;4943;52.550;13.462;2023-03-21T07:45:32;18.83;;;10.23;;
9807;SDS011;4943;52.550;13.462;2023-03-21T07:48:00;17.77;;;10.67;;
9807;SDS011;4943;52.550;13.462;2023-03-21T07:50:30;16.97;;;9.90;;
9807;SDS011;4943;52.550;13.462;2023-03-21T07:52:58;20.53;;;10.30;;
9807;SDS011;4943;52.550;13.462;2023-03-21T07:55:26;20.93;;;10.87;;
9807;SDS011;4943;52.550;13.462;2023-03-21T07:57:54;17.97;;;11.20;;
9807;SDS011;4943;52.550;13.462;2023-03-21T08:00:22;17.97;;;10.17;;
9807;SDS011;4943;52.550;13.462;2023-03-21T08:02:51;19.53;;;9.03;;
9807;SDS011;4943;52.550;13.462;2023-03-21T08:05:24;19.03;;;10.43;;
9807;SDS011;4943;52.550;13.462;2023-03-21T08:07:55;19.27;;;10.80;;
9807;SDS011;4943;52.550;13.462;2023-03-21T08:10:23;20.73;;;11.10;;
9807;SDS011;4943;52.550;13.462;2023-03-21T08:12:51;22.33;;;11.73;;
9807;SDS011;4943;52.550;13.462;2023-03-21T08:15:19;19.43;;;11.17;;
9807;SDS011;4943;52.550;13.462;2023-03-21T08:17:49;19.50;;;10.53;;
9807;SDS011;4943;52.550;13.462;2023-03-21T08:20:18;19.63;;;10.07;;
9807;SDS011;4943;52.550;13.462;2023-03-21T08:22:47;22.47;;;11.00;;
9807;SDS011;4943;52.550;13.462;2023-03-21T08:25:18;19.40;;;11.53;;
9807;SDS011;4943;52.550;13.462;2023-03-21T08:27:47;18.57;;;10.30;;
9807;SDS011;4943;52.550;13.462;2023-03-21T08:30:17;17.73;;;10.50;;
9807;SDS011;4943;52.550;13.462;2023-03-21T08:32:47;18.10;;;11.15;;
9807;SDS011;4943;52.550;13.462;2023-03-21T08:35:15;19.27;;;11.03;;
9807;SDS011;4943;52.550;13.462;2023-03-21T08:37:45;16.37;;;9.80;;
9807;SDS011;4943;52.550;13.462;2023-03-21T08:40:14;19.77;;;10.23;;
9807;SDS011;4943;52.550;13.462;2023-03-21T08:42:45;16.47;;;10.90;;
9807;SDS011;4943;52.550;13.462;2023-03-21T08:45:14;21.00;;;11.30;;
9807;SDS011;4943;52.550;13.462;2023-03-21T08:47:44;15.95;;;9.65;;
9807;SDS011;4943;52.550;13.462;2023-03-21T08:50:13;19.97;;;10.47;;
9807;SDS011;4943;52.550;13.462;2023-03-21T08:52:43;20.00;;;11.60;;
9807;SDS011;4943;52.550;13.462;2023-03-21T08:55:12;20.08;;;11.23;;
9807;SDS011;4943;52.550;13.462;2023-03-21T08:57:42;16.33;;;10.48;;
9807;SDS011;4943;52.550;13.462;2023-03-21T09:00:12;18.00;;;10.43;;
9807;SDS011;4943;52.550;13.462;2023-03-21T09:02:43;14.82;;;9.40;;
9807;SDS011;4943;52.550;13.462;2023-03-21T09:05:13;17.30;;;9.00;;
9807;SDS011;4943;52.550;13.462;2023-03-21T09:07:42;17.75;;;10.23;;
9807;SDS011;4943;52.550;13.462;2023-03-21T09:10:12;17.03;;;9.10;;
9807;SDS011;4943;52.550;13.462;2023-03-21T09:12:49;16.88;;;9.85;;
9807;SDS011;4943;52.550;13.462;2023-03-21T09:15:18;16.20;;;9.20;;
9807;SDS011;4943;52.550;13.462;2023-03-21T09:17:47;15.30;;;9.10;;
9807;SDS011;4943;52.550;13.462;2023-03-21T09:20:18;17.02;;;9.55;;
9807;SDS011;4943;52.550;13.462;2023-03-21T09:22:51;17.85;;;9.20;;
9807;SDS011;4943;52.550;13.462;2023-03-21T09:25:19;17.52;;;9.65;;
9807;SDS011;4943;52.550;13.462;2023-03-21T09:27:50;11.83;;;7.63;;
9807;SDS011;4943;52.550;13.462;2023-03-21T09:30:19;15.17;;;8.63;;
9807;SDS011;4943;52.550;13.462;2023-03-21T09:32:51;13.95;;;8.80;;
9807;SDS011;4943;52.550;13.462;2023-03-21T09:35:21;14.45;;;8.48;;
9807;SDS011;4943;52.550;13.462;2023-03-21T09:37:50;16.20;;;8.27;;
9807;SDS011;4943;52.550;13.462;2023-03-21T09:40:19;14.18;;;8.48;;
9807;SDS011;4943;52.550;13.462;2023-03-21T09:43:00;13.50;;;9.00;;
9807;SDS011;4943;52.550;13.462;2023-03-21T09:45:35;16.17;;;9.00;;
9807;SDS011;4943;52.550;13.462;2023-03-21T09:48:11;15.47;;;8.47;;
9807;SDS011;4943;52.550;13.462;2023-03-21T09:50:47;12.50;;;7.07;;
9807;SDS011;4943;52.550;13.462;2023-03-21T09:53:17;13.98;;;8.15;;
9807;SDS011;4943;52.550;13.462;2023-03-21T09:55:48;14.20;;;8.05;;
9807;SDS011;4943;52.550;13.462;2023-03-21T09:58:22;12.38;;;7.93;;
9807;SDS011;4943;52.550;13.462;2023-03-21T10:00:56;15.68;;;9.52;;
9807;SDS011;4943;52.550;13.462;2023-03-21T10:03:31;16.23;;;9.80;;
9807;SDS011;4943;52.550;13.462;2023-03-21T10:06:02;17.33;;;8.68;;
9807;SDS011;4943;52.550;13.462;2023-03-21T10:08:37;14.50;;;7.38;;
9807;SDS011;4943;52.550;13.462;2023-03-21T10:11:09;16.63;;;8.77;;
9807;SDS011;4943;52.550;13.462;2023-03-21T10:13:43;13.38;;;7.68;;
9807;SDS011;4943;52.550;13.462;2023-03-21T10:16:16;13.95;;;8.73;;
9807;SDS011;4943;52.550;13.462;2023-03-21T10:18:47;15.32;;;11.55;;
9807;SDS011;4943;52.550;13.462;2023-03-21T10:21:19;17.65;;;9.93;;
9807;SDS011;4943;52.550;13.462;2023-03-21T10:24:10;18.95;;;13.00;;
9807;SDS011;4943;52.550;13.462;2023-03-21T10:26:40;13.80;;;11.48;;
9807;SDS011;4943;52.550;13.462;2023-03-21T10:29:11;15.88;;;9.27;;
9807;SDS011;4943;52.550;13.462;2023-03-21T10:31:41;21.02;;;13.32;;
9807;SDS011;4943;52.550;13.462;2023-03-21T10:34:12;18.65;;;14.20;;
9807;SDS011;4943;52.550;13.462;2023-03-21T10:36:45;15.95;;;10.77;;
9807;SDS011;4943;52.550;13.462;2023-03-21T10:39:16;24.15;;;19.48;;
9807;SDS011;4943;52.550;13.462;2023-03-21T10:41:49;19.70;;;11.60;;
9807;SDS011;4943;52.550;13.462;2023-03-21T10:44:29;15.45;;;8.88;;
9807;SDS011;4943;52.550;13.462;2023-03-21T10:47:02;16.85;;;10.40;;
9807;SDS011;4943;52.550;13.462;2023-03-21T10:49:32;14.95;;;12.07;;
9807;SDS011;4943;52.550;13.462;2023-03-21T10:52:10;28.35;;;19.83;;
9807;SDS011;4943;52.550;13.462;2023-03-21T10:54:40;17.67;;;12.05;;
9807;SDS011;4943;52.550;13.462;2023-03-21T10:57:08;13.77;;;11.80;;
9807;SDS011;4943;52.550;13.462;2023-03-21T10:59:46;16.50;;;10.55;;
9807;SDS011;4943;52.550;13.462;2023-03-21T11:02:20;19.50;;;12.02;;
9807;SDS011;4943;52.550;13.462;2023-03-21T11:04:52;16.75;;;12.43;;
9807;SDS011;4943;52.550;13.462;2023-03-21T11:07:26;16.88;;;11.50;;
9807;SDS011;4943;52.550;13.462;2023-03-21T11:09:57;16.65;;;9.13;;
9807;SDS011;4943;52.550;13.462;2023-03-21T11:12:30;23.48;;;20.33;;
9807;SDS011;4943;52.550;13.462;2023-03-21T11:15:23;28.77;;;23.15;;
9807;SDS011;4943;52.550;13.462;2023-03-21T11:17:54;27.33;;;24.33;;
9807;SDS011;4943;52.550;13.462;2023-03-21T11:20:22;23.13;;;20.33;;
9807;SDS011;4943;52.550;13.462;2023-03-21T11:22:52;30.85;;;27.35;;
9807;SDS011;4943;52.550;13.462;2023-03-21T11:25:24;19.63;;;14.57;;
9807;SDS011;4943;52.550;13.462;2023-03-21T11:28:03;18.52;;;14.88;;
9807;SDS011;4943;52.550;13.462;2023-03-21T11:30:34;16.25;;;12.20;;
9807;SDS011;4943;52.550;13.462;2023-03-21T11:33:02;17.23;;;14.02;;
9807;SDS011;4943;52.550;13.462;2023-03-21T11:35:34;22.95;;;13.30;;
9807;SDS011;4943;52.550;13.462;2023-03-21T11:38:04;23.75;;;21.15;;
9807;SDS011;4943;52.550;13.462;2023-03-21T11:40:51;28.63;;;20.73;;
9807;SDS011;4943;52.550;13.462;2023-03-21T11:43:26;25.77;;;19.27;;
9807;SDS011;4943;52.550;13.462;2023-03-21T11:45:59;23.05;;;20.30;;
9807;SDS011;4943;52.550;13.462;2023-03-21T11:48:32;33.85;;;27.17;;
9807;SDS011;4943;52.550;13.462;2023-03-21T11:51:09;34.15;;;25.55;;
9807;SDS011;4943;52.550;13.462;2023-03-21T11:53:47;25.95;;;21.80;;
9807;SDS011;4943;52.550;13.462;2023-03-21T11:56:20;16.67;;;13.25;;
9807;SDS011;4943;52.550;13.462;2023-03-21T11:58:57;15.30;;;10.70;;
9807;SDS011;4943;52.550;13.462;2023-03-21T12:01:42;13.50;;;10.65;;
9807;SDS011;4943;52.550;13.462;2023-03-21T12:04:20;16.48;;;13.48;;
9807;SDS011;4943;52.550;13.462;2023-03-21T12:06:55;18.13;;;11.20;;
9807;SDS011;4943;52.550;13.462;2023-03-21T12:09:33;30.60;;;26.05;;
9807;SDS011;4943;52.550;13.462;2023-03-21T12:12:07;24.77;;;22.25;;
9807;SDS011;4943;52.550;13.462;2023-03-21T12:14:52;26.35;;;23.48;;
9807;SDS011;4943;52.550;13.462;2023-03-21T12:17:31;28.65;;;25.67;;
9807;SDS011;4943;52.550;13.462;2023-03-21T12:20:11;18.23;;;15.00;;
9807;SDS011;4943;52.550;13.462;2023-03-21T12:22:50;22.67;;;20.13;;
9807;SDS011;4943;52.550;13.462;2023-03-21T12:25:29;19.00;;;14.80;;
9807;SDS011;4943;52.550;13.462;2023-03-21T12:28:04;16.33;;;11.50;;
9807;SDS011;4943;52.550;13.462;2023-03-21T12:30:58;16.67;;;14.25;;
9807;SDS011;4943;52.550;13.462;2023-03-21T12:33:38;24.48;;;22.40;;
9807;SDS011;4943;52.550;13.462;2023-03-21T12:36:18;31.52;;;29.05;;
9807;SDS011;4943;52.550;13.462;2023-03-21T12:39:03;30.73;;;27.75;;
9807;SDS011;4943;52.550;13.462;2023-03-21T12:41:48;34.10;;;31.23;;
9807;SDS011;4943;52.550;13.462;2023-03-21T12:44:23;35.17;;;29.23;;
9807;SDS011;4943;52.550;13.462;2023-03-21T12:46:56;37.70;;;34.47;;
9807;SDS011;4943;52.550;13.462;2023-03-21T12:49:28;53.28;;;49.10;;
9807;SDS011;4943;52.550;13.462;2023-03-21T12:52:00;48.90;;;44.80;;
9807;SDS011;4943;52.550;13.462;2023-03-21T12:54:34;46.50;;;42.70;;
9807;SDS011;4943;52.550;13.462;2023-03-21T12:57:07;49.90;;;45.50;;
9807;SDS011;4943;52.550;13.462;2023-03-21T12:59:40;25.50;;;23.23;;
9807;SDS011;4943;52.550;13.462;2023-03-21T13:02:17;25.00;;;22.80;;
9807;SDS011;4943;52.550;13.462;2023-03-21T13:04:53;38.45;;;34.90;;
9807;SDS011;4943;52.550;13.462;2023-03-21T13:07:26;34.83;;;31.83;;
9807;SDS011;4943;52.550;13.462;2023-03-21T13:09:59;36.70;;;33.47;;
9807;SDS011;4943;52.550;13.462;2023-03-21T13:12:32;38.35;;;35.10;;
9807;SDS011;4943;52.550;13.462;2023-03-21T13:15:17;28.13;;;24.48;;
9807;SDS011;4943;52.550;13.462;2023-03-21T13:18:11;33.40;;;30.20;;
9807;SDS011;4943;52.550;13.462;2023-03-21T13:20:46;59.17;;;54.45;;
9807;SDS011;4943;52.550;13.462;2023-03-21T13:23:18;58.25;;;53.30;;
9807;SDS011;4943;52.550;13.462;2023-03-21T13:25:48;64.05;;;59.03;;
9807;SDS011;4943;52.550;13.462;2023-03-21T13:28:19;54.85;;;50.80;;
9807;SDS011;4943;52.550;13.462;2023-03-21T13:30:49;58.42;;;53.17;;
9807;SDS011;4943;52.550;13.462;2023-03-21T13:33:19;86.40;;;79.78;;
9807;SDS011;4943;52.550;13.462;2023-03-21T13:35:57;89.57;;;81.72;;
9807;SDS011;4943;52.550;13.462;2023-03-21T13:38:31;78.53;;;71.70;;
9807;SDS011;4943;52.550;13.462;2023-03-21T13:41:02;75.07;;;68.05;;
9807;SDS011;4943;52.550;13.462;2023-03-21T13:43:38;77.88;;;70.60;;
9807;SDS011;4943;52.550;13.462;2023-03-21T13:46:09;63.42;;;58.10;;
9807;SDS011;4943;52.550;13.462;2023-03-21T13:48:43;61.50;;;56.65;;
9807;SDS011;4943;52.550;13.462;2023-03-21T13:54:18;94.63;;;86.47;;
9807;SDS011;4943;52.550;13.462;2023-03-21T13:56:53;101.95;;;92.50;;
9807;SDS011;4943;52.550;13.462;2023-03-21T13:59:37;104.00;;;93.78;;
9807;SDS011;4943;52.550;13.462;2023-03-21T14:02:21;100.67;;;90.97;;
9807;SDS011;4943;52.550;13.462;2023-03-21T14:04:55;110.32;;;99.85;;
9807;SDS011;4943;52.550;13.462;2023-03-21T14:07:35;107.35;;;96.15;;
9807;SDS011;4943;52.550;13.462;2023-03-21T14:10:16;37.65;;;33.45;;
9807;SDS011;4943;52.550;13.462;2023-03-21T14:12:48;78.18;;;72.22;;
9807;SDS011;4943;52.550;13.462;2023-03-21T14:15:18;55.03;;;50.42;;
9807;SDS011;4943;52.550;13.462;2023-03-21T14:17:48;54.63;;;49.15;;
9807;SDS011;4943;52.550;13.462;2023-03-21T14:20:19;73.05;;;67.00;;
9807;SDS011;4943;52.550;13.462;2023-03-21T14:22:50;52.65;;;47.83;;
9807;SDS011;4943;52.550;13.462;2023-03-21T14:25:19;85.93;;;77.97;;
9807;SDS011;4943;52.550;13.462;2023-03-21T14:27:54;71.43;;;64.88;;
9807;SDS011;4943;52.550;13.462;2023-03-21T14:30:25;54.97;;;50.28;;
9807;SDS011;4943;52.550;13.462;2023-03-21T14:32:56;91.32;;;83.85;;
9807;SDS011;4943;52.550;13.462;2023-03-21T14:35:27;100.32;;;91.20;;
9807;SDS011;4943;52.550;13.462;2023-03-21T14:38:00;103.35;;;95.07;;
9807;SDS011;4943;52.550;13.462;2023-03-21T14:40:30;132.18;;;121.05;;
9807;SDS011;4943;52.550;13.462;2023-03-21T14:43:02;118.38;;;110.30;;
9807;SDS011;4943;52.550;13.462;2023-03-21T14:45:32;113.00;;;104.30;;
9807;SDS011;4943;52.550;13.462;2023-03-21T14:48:03;107.75;;;100.47;;
9807;SDS011;4943;52.550;13.462;2023-03-21T14:50:35;109.10;;;99.97;;
9807;SDS011;4943;52.550;13.462;2023-03-21T14:53:08;72.78;;;67.47;;
9807;SDS011;4943;52.550;13.462;2023-03-21T14:55:41;81.13;;;75.65;;
9807;SDS011;4943;52.550;13.462;2023-03-21T14:58:11;87.05;;;81.32;;
9807;SDS011;4943;52.550;13.462;2023-03-21T15:00:42;139.18;;;127.75;;
9807;SDS011;4943;52.550;13.462;2023-03-21T15:03:10;63.22;;;58.53;;
9807;SDS011;4943;52.550;13.462;2023-03-21T15:05:41;61.78;;;57.97;;
9807;SDS011;4943;52.550;13.462;2023-03-21T15:08:13;18.98;;;17.38;;
9807;SDS011;4943;52.550;13.462;2023-03-21T15:10:52;25.63;;;23.70;;
9807;SDS011;4943;52.550;13.462;2023-03-21T15:13:32;32.83;;;30.38;;
9807;SDS011;4943;52.550;13.462;2023-03-21T15:16:02;29.08;;;26.63;;
9807;SDS011;4943;52.550;13.462;2023-03-21T15:18:32;20.05;;;18.48;;
9807;SDS011;4943;52.550;13.462;2023-03-21T15:21:03;53.83;;;49.83;;